createdAt,value
2018-12-26T13:39:48.716Z,39.43
2018-12-26T13:42:17.302Z,28.12
2018-12-26T13:44:45.783Z,26.31
2018-12-26T13:47:14.058Z,27.34
2018-12-26T13:49:43.439Z,37.04
2018-12-26T13:52:11.689Z,37.61
2018-12-26T13:54:40.322Z,36.25
2018-12-26T13:57:08.802Z,36.96
2018-12-26T13:59:37.252Z,36.35
2018-12-26T14:02:05.506Z,38.93
2018-12-26T14:04:33.766Z,40.72
2018-12-26T14:07:02.126Z,40.90
2018-12-26T14:09:30.375Z,40.81
2018-12-26T14:11:58.644Z,41.33
2018-12-26T14:14:27.147Z,41.81
2018-12-26T14:16:55.670Z,41.92
2018-12-26T14:19:23.919Z,41.56
2018-12-26T14:21:52.193Z,41.60
2018-12-26T14:24:20.636Z,41.60
2018-12-26T14:26:48.909Z,41.59
2018-12-26T14:29:17.155Z,41.61
2018-12-26T14:31:45.496Z,41.57
2018-12-26T14:34:13.739Z,41.65
2018-12-26T14:36:42.056Z,41.73
2018-12-26T14:39:10.304Z,41.62
2018-12-26T14:41:38.571Z,41.68
2018-12-26T14:44:06.817Z,41.72
2018-12-26T14:46:35.126Z,41.71
2018-12-26T14:49:03.367Z,41.65
2018-12-26T14:51:31.636Z,41.64
2018-12-26T14:53:59.949Z,41.74
2018-12-26T14:56:28.277Z,41.70
2018-12-26T14:58:56.518Z,41.76
2018-12-26T15:01:24.783Z,41.77
2018-12-26T15:03:53.075Z,41.70
2018-12-26T15:06:21.344Z,41.80
2018-12-26T15:08:49.661Z,41.64
2018-12-26T15:11:17.931Z,41.60
2018-12-26T15:13:46.176Z,41.62
2018-12-26T15:16:14.438Z,41.66
2018-12-26T15:18:42.685Z,41.64
2018-12-26T15:21:11.135Z,41.68
2018-12-26T15:23:39.376Z,41.84
2018-12-26T15:26:07.670Z,41.70
2018-12-26T15:28:35.919Z,41.74
2018-12-26T15:31:04.184Z,41.86
2018-12-26T15:33:32.432Z,41.69
2018-12-26T15:36:00.701Z,41.80
2018-12-26T15:38:28.945Z,41.67
2018-12-26T15:40:57.263Z,41.69
2018-12-26T15:43:25.509Z,41.76
2018-12-26T15:45:53.775Z,41.69
2018-12-26T15:48:22.016Z,41.86
2018-12-26T15:50:50.284Z,41.91
2018-12-26T15:53:18.526Z,41.95
2018-12-26T15:55:46.813Z,41.67
2018-12-26T15:58:15.055Z,42.00
2018-12-26T16:00:43.324Z,42.05
2018-12-26T16:03:11.801Z,41.93
2018-12-26T16:05:40.043Z,42.25
2018-12-26T16:08:08.310Z,42.45
2018-12-26T16:10:36.558Z,42.69
2018-12-26T16:13:04.859Z,42.67
2018-12-26T16:15:33.103Z,42.73
2018-12-26T16:18:01.372Z,42.83
2018-12-26T16:20:29.623Z,42.88
2018-12-26T16:22:57.885Z,43.07
2018-12-26T16:25:26.131Z,43.08
2018-12-26T16:27:55.184Z,43.05
2018-12-26T16:30:24.085Z,42.91
2018-12-26T16:34:57.656Z,43.10
2018-12-26T16:37:25.924Z,42.89
2018-12-26T16:39:54.171Z,42.86
2018-12-26T16:42:21.803Z,43.22
2018-12-26T16:44:49.427Z,41.98
2018-12-26T16:47:17.076Z,43.10
2018-12-26T16:49:44.830Z,43.54
2018-12-26T16:52:12.477Z,43.69
2018-12-26T16:54:40.097Z,43.64
2018-12-26T16:57:07.743Z,43.58
2018-12-26T16:59:35.367Z,43.49
2018-12-26T17:02:03.021Z,43.41
2018-12-26T17:04:30.641Z,43.36
2018-12-26T17:06:58.288Z,43.28
2018-12-26T17:09:25.907Z,43.19
2018-12-26T17:11:53.555Z,43.17
2018-12-26T17:14:21.180Z,43.05
2018-12-26T17:16:48.819Z,43.02
2018-12-26T17:19:16.447Z,42.97
2018-12-26T17:21:44.152Z,42.93
2018-12-26T17:24:16.483Z,42.84
2018-12-26T17:26:41.072Z,42.81
2018-12-26T17:29:08.700Z,42.73
2018-12-26T17:31:36.346Z,42.75
2018-12-26T17:34:03.965Z,42.70
2018-12-26T17:36:31.620Z,42.66
2018-12-26T17:38:59.259Z,42.62
2018-12-26T17:41:26.901Z,42.59
2018-12-26T17:43:54.528Z,42.57
2018-12-26T17:46:22.155Z,42.52
2018-12-26T17:48:49.800Z,42.50
2018-12-26T17:51:17.428Z,42.50
2018-12-26T17:53:46.695Z,42.48
2018-12-26T17:56:21.700Z,42.48
2018-12-26T17:58:56.739Z,42.44
2018-12-26T18:01:25.999Z,42.43
2018-12-26T18:03:53.643Z,42.40
2018-12-26T18:06:21.269Z,42.37
2018-12-26T18:08:48.924Z,42.32
2018-12-26T18:11:16.544Z,42.32
2018-12-26T18:13:44.200Z,42.28
2018-12-26T18:16:11.828Z,42.28
2018-12-26T18:18:39.474Z,42.25
2018-12-26T18:21:07.550Z,42.26
2018-12-26T18:23:35.344Z,42.23
2018-12-26T18:26:02.972Z,42.18
2018-12-26T18:28:30.622Z,42.20
2018-12-26T18:30:58.249Z,42.15
2018-12-26T18:33:25.896Z,42.15
2018-12-26T18:35:53.525Z,42.13
2018-12-26T18:38:21.176Z,42.06
2018-12-26T18:40:48.868Z,42.01
2018-12-26T18:43:16.520Z,42.01
2018-12-26T18:45:44.143Z,41.96
2018-12-26T18:48:11.797Z,41.95
2018-12-26T18:50:39.443Z,41.93
2018-12-26T18:53:07.091Z,41.91
2018-12-26T18:55:34.715Z,41.94
2018-12-26T18:58:02.409Z,41.91
2018-12-26T19:00:30.105Z,42.03
2018-12-26T19:02:57.735Z,41.99
2018-12-26T19:05:25.384Z,41.96
2018-12-26T19:07:53.013Z,41.92
2018-12-26T19:10:20.659Z,41.89
2018-12-26T19:12:48.639Z,41.88
2018-12-26T19:15:16.287Z,42.50
2018-12-26T19:17:44.812Z,42.39
2018-12-26T19:20:12.455Z,42.68
2018-12-26T19:22:40.557Z,42.91
